createdAt,value
2023-01-06T00:03:16.809Z,23.4
2023-01-06T00:08:08.692Z,23.1
2023-01-06T00:13:32.586Z,23.3
2023-01-06T00:18:40.315Z,23.9
2023-01-06T00:23:46.883Z,23.7
2023-01-06T00:28:39.433Z,23.4
2023-01-06T00:33:47.521Z,23.2
2023-01-06T00:38:54.784Z,23.7
2023-01-06T00:43:32.357Z,23.9
2023-01-06T00:48:39.465Z,23.6
2023-01-06T00:53:55.755Z,23.4
2023-01-06T00:59:02.844Z,23.4
2023-01-06T01:04:11.258Z,24
2023-01-06T01:09:18.024Z,23.9
2023-01-06T01:14:09.763Z,23.6
2023-01-06T01:19:17.937Z,23.3
2023-01-06T01:24:24.882Z,23.7
2023-01-06T01:29:48.390Z,24.1
2023-01-06T01:34:56.084Z,23.7
2023-01-06T01:40:03.093Z,23.4
2023-01-06T01:44:55.193Z,23.5
2023-01-06T01:50:02.842Z,24
2023-01-06T01:55:09.323Z,23.9
2023-01-06T02:00:17.166Z,23.7
2023-01-06T02:05:26.582Z,23.4
2023-01-06T02:10:33.719Z,23.7
2023-01-06T02:15:25.410Z,24.1
2023-01-06T02:20:33.825Z,23.9
2023-01-06T02:25:40.714Z,23.6
2023-01-06T02:30:47.960Z,23.4
2023-01-06T02:35:55.799Z,23.9
2023-01-06T02:41:18.834Z,24.1
2023-01-06T02:46:10.995Z,23.8
2023-01-06T02:51:19.492Z,23.6
2023-01-06T02:56:11.594Z,23.6
2023-01-06T03:01:18.307Z,24.1
2023-01-06T03:06:43.367Z,24
2023-01-06T03:11:34.501Z,23.7
2023-01-06T03:16:41.755Z,23.4
2023-01-06T03:21:50.604Z,23.8
2023-01-06T03:26:42.517Z,24.2
2023-01-06T03:31:33.712Z,23.9
2023-01-06T03:36:39.399Z,23.7
2023-01-06T03:41:32.725Z,23.5
2023-01-06T03:46:50.843Z,23.9
2023-01-06T03:52:13.645Z,24.1
2023-01-06T03:57:22.091Z,23.8
2023-01-06T04:01:58.778Z,23.6
2023-01-06T04:06:49.963Z,23.6
2023-01-06T04:11:57.138Z,24.1
2023-01-06T04:17:06.007Z,24.1
2023-01-06T04:22:12.638Z,23.8
2023-01-06T04:27:19.777Z,23.6
2023-01-06T04:32:28.434Z,23.6
2023-01-06T04:37:37.866Z,24.1
2023-01-06T04:43:00.579Z,24
2023-01-06T04:48:24.859Z,23.7
2023-01-06T04:53:47.044Z,23.4
2023-01-06T04:59:12.843Z,23.8
2023-01-06T05:04:22.301Z,24.2
2023-01-06T05:09:53.492Z,23.9
2023-01-06T05:15:15.518Z,23.6
2023-01-06T05:20:08.654Z,23.6
2023-01-06T05:25:00.216Z,24
2023-01-06T05:29:51.318Z,24.1
2023-01-06T05:34:58.375Z,23.8
2023-01-06T05:39:50.623Z,23.6
2023-01-06T05:44:57.762Z,23.4
2023-01-06T05:50:04.513Z,23.9
2023-01-06T05:55:13.335Z,24.1
2023-01-06T06:00:21.315Z,23.8
2023-01-06T06:05:44.560Z,23.6
2023-01-06T06:11:08.091Z,23.4
2023-01-06T06:16:15.910Z,23.3
2023-01-06T06:21:38.338Z,23.6
2023-01-06T06:26:46.039Z,23.8
2023-01-06T06:32:09.008Z,23.5
2023-01-06T06:37:31.127Z,23.3
2023-01-06T06:42:54.937Z,23.1
2023-01-06T06:48:18.530Z,23
2023-01-06T06:53:40.981Z,22.9
2023-01-06T06:59:04.946Z,23.1
2023-01-06T07:04:29.295Z,23.6
2023-01-06T07:09:37.107Z,23.5
2023-01-06T07:14:30.023Z,23.2
2023-01-06T07:19:54.228Z,23
2023-01-06T07:25:17.589Z,22.9
2023-01-06T07:30:41.045Z,23.4
2023-01-06T07:36:04.908Z,23.6
2023-01-06T07:41:28.218Z,23.2
2023-01-06T07:46:52.467Z,23
2023-01-06T07:52:17.139Z,22.9
2023-01-06T07:57:25.482Z,23.3
2023-01-06T08:02:50.245Z,23.6
2023-01-06T08:08:14.296Z,23.2
2023-01-06T08:13:37.428Z,23.1
2023-01-06T08:18:46.142Z,22.9
2023-01-06T08:24:09.811Z,22.8
2023-01-06T08:29:33.290Z,22.8
2023-01-06T08:35:05.326Z,22.8
2023-01-06T08:40:29.587Z,23.3
2023-01-06T08:45:52.255Z,23.3
2023-01-06T08:51:17.778Z,23
2023-01-06T08:56:10.511Z,22.9
2023-01-06T09:01:32.649Z,22.8
2023-01-06T09:06:41.837Z,22.7
2023-01-06T09:12:07.492Z,22.6
2023-01-06T09:17:31.034Z,22.8
2023-01-06T09:22:55.404Z,23.3
2023-01-06T09:28:04.043Z,23.1
2023-01-06T09:33:27.718Z,22.9
2023-01-06T09:38:51.863Z,22.8
2023-01-06T09:44:15.487Z,22.7
2023-01-06T09:49:23.715Z,22.7
2023-01-06T09:54:32.207Z,22.6
2023-01-06T09:59:55.924Z,23.2
2023-01-06T10:05:20.032Z,23.3
2023-01-06T10:10:44.589Z,22.9
2023-01-06T10:15:52.697Z,22.8
2023-01-06T10:21:16.545Z,22.8
2023-01-06T10:26:40.944Z,23.4
2023-01-06T10:32:08.449Z,23.2
2023-01-06T10:37:34.574Z,22.9
2023-01-06T10:42:58.861Z,22.8
2023-01-06T10:48:07.730Z,23
2023-01-06T10:53:15.580Z,23.5
2023-01-06T10:58:40.102Z,23.3
2023-01-06T11:04:10.295Z,23
2023-01-06T11:09:33.632Z,22.9
2023-01-06T11:15:05.961Z,23.1
2023-01-06T11:20:13.691Z,23.6
2023-01-06T11:25:39.567Z,23.3
2023-01-06T11:31:04.156Z,23.1
2023-01-06T11:36:11.628Z,22.9
2023-01-06T11:41:45.378Z,23.3
2023-01-06T11:47:12.966Z,23.5
2023-01-06T11:52:37.757Z,23.2
2023-01-06T11:58:01.526Z,23
2023-01-06T12:03:26.429Z,22.9
2023-01-06T12:08:49.814Z,22.8
2023-01-06T12:14:39.891Z,23.3
2023-01-06T12:20:04.266Z,23.4
2023-01-06T12:25:12.176Z,23.1
2023-01-06T12:30:35.738Z,23
2023-01-06T12:35:59.835Z,22.9
2023-01-06T12:41:08.228Z,22.8
2023-01-06T12:46:37.605Z,22.8
2023-01-06T12:52:01.593Z,23
2023-01-06T12:57:35.553Z,23.4
2023-01-06T13:02:43.740Z,22.9
2023-01-06T13:08:07.399Z,22.8
2023-01-06T13:13:30.500Z,22.5
2023-01-06T13:18:56.346Z,22.4
2023-01-06T13:24:20.943Z,22.2
2023-01-06T13:29:43.982Z,22.4
2023-01-06T13:34:36.474Z,22.9
2023-01-06T13:40:00.329Z,22.9
2023-01-06T13:45:23.716Z,22.7
2023-01-06T13:50:16.174Z,22.6
2023-01-06T13:55:40.731Z,22.4
2023-01-06T14:00:49.032Z,22.4
2023-01-06T14:05:58.164Z,22.3
2023-01-06T14:11:22.302Z,22.4
2023-01-06T14:16:31.063Z,23
2023-01-06T14:21:54.010Z,22.8
2023-01-06T14:27:19.003Z,22.6
2023-01-06T14:32:43.738Z,22.5
2023-01-06T14:38:06.389Z,22.4
2023-01-06T14:43:30.582Z,22.3
2023-01-06T14:48:38.957Z,22.5
2023-01-06T14:54:07.992Z,23
2023-01-06T14:59:16.748Z,22.8
2023-01-06T15:04:25.282Z,22.6
2023-01-06T15:09:31.519Z,22.4
2023-01-06T15:15:06.345Z,22.8
2023-01-06T15:20:13.808Z,23.1
2023-01-06T15:25:21.198Z,22.8
2023-01-06T15:30:29.928Z,22.6
2023-01-06T15:35:38.319Z,22.5
2023-01-06T15:41:01.385Z,22.8
2023-01-06T15:46:26.763Z,23.1
2023-01-06T15:51:49.409Z,22.8
2023-01-06T15:56:57.093Z,22.6
2023-01-06T16:02:09.323Z,22.6
2023-01-06T16:07:01.125Z,22.7
2023-01-06T16:11:52.767Z,23.3
2023-01-06T16:16:28.027Z,23
2023-01-06T16:21:52.294Z,22.8
2023-01-06T16:27:15.907Z,22.6
2023-01-06T16:32:06.989Z,22.6
2023-01-06T16:37:30.841Z,22.9
2023-01-06T16:42:38.418Z,23.2
2023-01-06T16:47:45.571Z,22.9
2023-01-06T16:52:54.659Z,22.7
2023-01-06T16:58:18.537Z,22.6
2023-01-06T17:03:26.925Z,22.5
2023-01-06T17:08:35.552Z,22.6
2023-01-06T17:13:59.139Z,23.1
2023-01-06T17:19:22.633Z,23.1
2023-01-06T17:24:31.037Z,22.8
2023-01-06T17:29:54.525Z,22.6
2023-01-06T17:34:46.187Z,22.6
2023-01-06T17:40:10.587Z,22.9
2023-01-06T17:45:18.404Z,23.2
2023-01-06T17:50:24.715Z,22.9
2023-01-06T17:55:17.398Z,22.7
2023-01-06T18:00:40.332Z,22.6
2023-01-06T18:05:47.316Z,22.5
2023-01-06T18:11:11.523Z,22.4
2023-01-06T18:16:35.342Z,22.7
2023-01-06T18:21:42.922Z,23.3
2023-01-06T18:26:52.926Z,22.9
2023-01-06T18:32:16.944Z,22.7
2023-01-06T18:37:24.130Z,22.6
2023-01-06T18:42:17.393Z,22.5
2023-01-06T18:47:42.036Z,22.8
2023-01-06T18:52:33.578Z,23.3
2023-01-06T18:57:42.407Z,22.9
2023-01-06T19:02:18.545Z,22.8
2023-01-06T19:07:44.094Z,22.6
2023-01-06T19:13:08.995Z,22.8
2023-01-06T19:18:31.737Z,23.3
2023-01-06T19:23:42.026Z,23
2023-01-06T19:28:37.992Z,22.8
2023-01-06T19:33:50.756Z,22.7
2023-01-06T19:39:03.384Z,22.8
2023-01-06T19:44:13.356Z,23.3
2023-01-06T19:49:40.949Z,23.2
2023-01-06T19:54:50.036Z,22.9
2023-01-06T20:00:03.230Z,22.8
2023-01-06T20:05:15.786Z,22.8
2023-01-06T20:10:25.187Z,23.3
2023-01-06T20:15:34.720Z,23.2
2023-01-06T20:20:44.740Z,22.9
2023-01-06T20:25:57.583Z,22.8
2023-01-06T20:31:11.038Z,22.8
2023-01-06T20:36:08.224Z,23.2
2023-01-06T20:41:32.573Z,23.3
2023-01-06T20:46:57.873Z,23
2023-01-06T20:52:04.976Z,22.8
2023-01-06T20:57:28.360Z,22.7
2023-01-06T21:02:38.810Z,23.1
2023-01-06T21:07:46.246Z,23.4
2023-01-06T21:12:53.994Z,23.1
2023-01-06T21:17:46.971Z,22.8
2023-01-06T21:22:54.105Z,22.7
2023-01-06T21:28:17.500Z,22.9
2023-01-06T21:33:41.617Z,23.4
2023-01-06T21:38:33.113Z,23.2
2023-01-06T21:43:40.112Z,22.9
2023-01-06T21:48:34.621Z,22.6
2023-01-06T21:53:57.623Z,22.5
2023-01-06T21:59:04.865Z,22.3
2023-01-06T22:04:12.979Z,22.3
2023-01-06T22:09:36.891Z,22.4
2023-01-06T22:14:44.531Z,22.8
2023-01-06T22:20:07.244Z,23.4
2023-01-06T22:24:59.330Z,23.7
2023-01-06T22:30:07.455Z,23.4
2023-01-06T22:35:15.463Z,23
2023-01-06T22:40:38.897Z,22.8
2023-01-06T22:45:46.434Z,22.6
2023-01-06T22:50:54.278Z,22.4
2023-01-06T22:56:01.446Z,22.6
2023-01-06T23:01:09.907Z,23.1
2023-01-06T23:06:18.908Z,23.8
2023-01-06T23:11:22.312Z,23.6
2023-01-06T23:16:30.348Z,23.3
2023-01-06T23:21:55.570Z,23.4
2023-01-06T23:27:03.459Z,23.9
2023-01-06T23:32:10.943Z,24
2023-01-06T23:37:18.696Z,24.1
2023-01-06T23:42:48.229Z,24.1
2023-01-06T23:47:44.065Z,23.7
2023-01-06T23:52:51.669Z,23.3
2023-01-06T23:58:15.156Z,23.1
